Time;durP1;ratioP1;P1;durP2;ratioP2;P2;SDS_P1;SDS_P2;PMS_P1;PMS_P2;Temp;Humidity;BMP_temperature;BMP_pressure;BME280_temperature;BME280_humidity;BME280_pressure;Samples;Min_cycle;Max_cycle;Signal;HPM_P1;HPM_P2
2023/12/01 00:00:46;;;;;;;67.45;28.08;;;;;;;;;;5054221;28;20350;-78
2023/12/01 00:03:12;;;;;;;66.72;26.20;;;;;;;;;;5053328;28;20052;-77
2023/12/01 00:05:39;;;;;;;69.82;29.65;;;;;;;;;;5053586;28;20075;-78
2023/12/01 00:08:05;;;;;;;65.78;29.05;;;;;;;;;;5037698;28;20049;-78
2023/12/01 00:10:31;;;;;;;66.57;27.85;;;;;;;;;;5053294;28;20041;-78
2023/12/01 00:12:57;;;;;;;68.90;30.60;;;;;;;;;;5052930;28;20047;-77
2023/12/01 00:15:23;;;;;;;68.07;29.50;;;;;;;;;;5053305;28;20045;-77
2023/12/01 00:17:50;;;;;;;72.00;30.80;;;;;;;;;;5054136;28;20122;-77
2023/12/01 00:20:16;;;;;;;60.53;29.25;;;;;;;;;;5053361;28;20382;-77
2023/12/01 00:22:43;;;;;;;69.30;29.95;;;;;;;;;;5052783;28;20053;-77
2023/12/01 00:25:09;;;;;;;67.93;29.48;;;;;;;;;;5053194;28;20045;-77
2023/12/01 00:27:35;;;;;;;71.82;30.48;;;;;;;;;;5037174;28;20049;-77
2023/12/01 00:30:02;;;;;;;63.47;28.50;;;;;;;;;;5036112;28;20053;-77
2023/12/01 00:32:28;;;;;;;60.65;26.10;;;;;;;;;;5052941;28;20499;-77
2023/12/01 00:34:54;;;;;;;64.68;29.17;;;;;;;;;;5036575;28;20056;-77
2023/12/01 00:37:20;;;;;;;63.30;27.92;;;;;;;;;;5053605;28;20041;-77
2023/12/01 00:39:46;;;;;;;61.90;27.38;;;;;;;;;;5052408;28;20049;-77
2023/12/01 00:42:13;;;;;;;63.60;27.80;;;;;;;;;;5052265;28;20080;-77
2023/12/01 00:44:39;;;;;;;58.20;28.08;;;;;;;;;;5036045;28;20049;-78
2023/12/01 00:47:05;;;;;;;61.03;27.52;;;;;;;;;;5036222;28;20052;-78
2023/12/01 00:49:31;;;;;;;58.45;28.35;;;;;;;;;;5051969;28;20052;-78
2023/12/01 00:51:58;;;;;;;55.58;26.63;;;;;;;;;;5052644;28;20057;-78
2023/12/01 00:54:24;;;;;;;54.75;24.88;;;;;;;;;;5052633;28;20048;-78
2023/12/01 00:56:50;;;;;;;50.53;22.90;;;;;;;;;;5052803;28;20071;-78
2023/12/01 00:59:16;;;;;;;57.00;25.25;;;;;;;;;;5052560;28;20041;-77
2023/12/01 01:01:42;;;;;;;50.53;23.83;;;;;;;;;;5052629;28;20041;-77
2023/12/01 01:04:08;;;;;;;47.40;23.23;;;;;;;;;;5019890;28;20131;-78
2023/12/01 01:06:34;;;;;;;55.13;26.95;;;;;;;;;;5052465;28;20052;-77
2023/12/01 01:09:00;;;;;;;45.78;22.92;;;;;;;;;;5052506;28;20080;-78
2023/12/01 01:11:26;;;;;;;47.40;23.42;;;;;;;;;;5052386;28;20056;-78
2023/12/01 01:13:52;;;;;;;44.00;22.15;;;;;;;;;;5052449;28;20055;-78
2023/12/01 01:16:19;;;;;;;43.83;21.83;;;;;;;;;;5036598;28;20049;-77
2023/12/01 01:18:45;;;;;;;44.38;22.92;;;;;;;;;;5019531;28;20094;-77
2023/12/01 01:21:11;;;;;;;45.80;22.63;;;;;;;;;;5052261;28;20048;-77
2023/12/01 01:23:37;;;;;;;43.08;22.42;;;;;;;;;;5052547;28;20049;-78
2023/12/01 01:26:03;;;;;;;40.58;18.58;;;;;;;;;;5035653;28;20144;-77
2023/12/01 01:28:29;;;;;;;40.95;19.52;;;;;;;;;;5035709;28;20048;-77
2023/12/01 01:30:57;;;;;;;44.08;21.23;;;;;;;;;;5053089;28;20041;-77
2023/12/01 01:33:23;;;;;;;43.40;20.73;;;;;;;;;;5035595;28;20208;-77
2023/12/01 01:35:49;;;;;;;48.15;22.45;;;;;;;;;;5036383;28;20049;-78
2023/12/01 01:38:15;;;;;;;47.92;21.60;;;;;;;;;;5035630;28;20075;-77
2023/12/01 01:40:41;;;;;;;47.42;21.15;;;;;;;;;;5035712;28;20053;-77
2023/12/01 01:43:07;;;;;;;43.42;20.48;;;;;;;;;;5051862;28;20041;-78
2023/12/01 01:45:33;;;;;;;39.72;18.80;;;;;;;;;;5019926;28;20063;-77
2023/12/01 01:48:00;;;;;;;41.75;20.58;;;;;;;;;;5035243;28;20044;-78
2023/12/01 01:50:26;;;;;;;42.08;20.33;;;;;;;;;;5051640;28;20106;-78
2023/12/01 01:52:53;;;;;;;43.08;21.13;;;;;;;;;;5036105;28;20052;-77
2023/12/01 01:55:19;;;;;;;39.80;19.35;;;;;;;;;;5035652;28;20060;-78
2023/12/01 01:57:46;;;;;;;41.75;18.90;;;;;;;;;;5035527;28;20048;-78
2023/12/01 02:00:16;;;;;;;44.58;21.40;;;;;;;;;;5052420;28;20049;-78
2023/12/01 02:02:42;;;;;;;39.60;20.33;;;;;;;;;;5056192;28;20041;-78
2023/12/01 02:05:13;;;;;;;42.03;18.95;;;;;;;;;;5039340;28;20049;-77
2023/12/01 02:07:40;;;;;;;45.85;21.05;;;;;;;;;;5055960;28;20049;-78
2023/12/01 02:10:06;;;;;;;49.28;21.05;;;;;;;;;;5055834;28;20049;-77
2023/12/01 02:12:33;;;;;;;42.08;20.38;;;;;;;;;;5055715;28;20122;-78
2023/12/01 02:14:59;;;;;;;40.17;18.20;;;;;;;;;;5055327;28;20132;-78
2023/12/01 02:17:25;;;;;;;34.00;17.13;;;;;;;;;;5039057;28;20419;-78
2023/12/01 02:19:51;;;;;;;41.80;18.85;;;;;;;;;;5056183;28;20400;-77
2023/12/01 02:22:17;;;;;;;41.15;18.23;;;;;;;;;;5055967;28;20041;-78
2023/12/01 02:24:43;;;;;;;32.53;15.32;;;;;;;;;;5055270;28;20084;-78
2023/12/01 02:27:09;;;;;;;36.90;17.30;;;;;;;;;;5056083;28;20045;-78
2023/12/01 02:29:35;;;;;;;38.22;18.63;;;;;;;;;;5038638;28;20053;-78
2023/12/01 02:32:01;;;;;;;38.40;18.50;;;;;;;;;;5039452;28;20350;-78
2023/12/01 02:34:27;;;;;;;39.22;17.83;;;;;;;;;;5055175;28;20067;-78
2023/12/01 02:36:55;;;;;;;36.22;17.30;;;;;;;;;;5039411;28;20402;-77
2023/12/01 02:39:21;;;;;;;39.08;19.35;;;;;;;;;;5038471;28;20500;-78
2023/12/01 02:41:48;;;;;;;36.35;18.30;;;;;;;;;;5055678;28;20037;-77
2023/12/01 02:44:14;;;;;;;37.30;18.60;;;;;;;;;;5038554;28;20439;-78
2023/12/01 02:46:40;;;;;;;33.40;16.33;;;;;;;;;;5038330;28;20049;-77
2023/12/01 02:49:08;;;;;;;38.38;17.95;;;;;;;;;;5055464;28;20048;-78
2023/12/01 02:51:34;;;;;;;35.05;16.65;;;;;;;;;;5055139;28;20060;-78
2023/12/01 02:54:00;;;;;;;31.13;16.15;;;;;;;;;;5038341;28;20045;-78
2023/12/01 02:56:26;;;;;;;30.25;15.40;;;;;;;;;;5054980;28;20052;-78
2023/12/01 02:58:52;;;;;;;27.98;14.55;;;;;;;;;;5054668;28;20040;-78
2023/12/01 03:01:18;;;;;;;31.23;16.17;;;;;;;;;;5054503;28;20080;-78
2023/12/01 03:03:45;;;;;;;26.83;13.65;;;;;;;;;;5054255;28;20056;-77
2023/12/01 03:06:11;;;;;;;27.13;15.40;;;;;;;;;;5038852;28;20153;-78
2023/12/01 03:08:37;;;;;;;28.40;14.75;;;;;;;;;;5055298;28;20409;-78
2023/12/01 03:11:06;;;;;;;30.10;15.20;;;;;;;;;;5054367;28;20049;-78
2023/12/01 03:13:32;;;;;;;32.03;15.75;;;;;;;;;;5038170;28;20473;-78
2023/12/01 03:15:58;;;;;;;29.23;15.13;;;;;;;;;;5038509;28;20053;-78
2023/12/01 03:18:24;;;;;;;28.95;15.23;;;;;;;;;;5054565;28;20052;-78
2023/12/01 03:20:50;;;;;;;27.92;15.35;;;;;;;;;;5055036;28;20128;-78
2023/12/01 03:23:17;;;;;;;26.88;14.88;;;;;;;;;;5054115;28;20037;-78
2023/12/01 03:25:43;;;;;;;25.65;14.88;;;;;;;;;;5054180;28;20053;-78
2023/12/01 03:28:09;;;;;;;27.40;15.40;;;;;;;;;;5054884;28;20051;-78
2023/12/01 03:30:35;;;;;;;28.27;15.40;;;;;;;;;;5054075;28;20045;-78
2023/12/01 03:33:01;;;;;;;29.75;15.32;;;;;;;;;;5054245;28;20053;-78
2023/12/01 03:35:27;;;;;;;26.85;15.38;;;;;;;;;;5053966;28;20053;-77
2023/12/01 03:37:55;;;;;;;27.80;15.93;;;;;;;;;;5054151;28;20045;-78
2023/12/01 03:40:21;;;;;;;27.38;14.85;;;;;;;;;;5053963;28;20041;-77
2023/12/01 03:42:48;;;;;;;27.85;15.50;;;;;;;;;;5053468;28;20037;-78
2023/12/01 03:45:14;;;;;;;26.15;14.05;;;;;;;;;;5037839;28;20049;-78
2023/12/01 03:47:41;;;;;;;30.63;16.45;;;;;;;;;;5037288;28;20451;-78
2023/12/01 03:50:14;;;;;;;28.38;14.93;;;;;;;;;;5053440;28;20057;-77
2023/12/01 03:52:41;;;;;;;27.08;14.98;;;;;;;;;;5036907;28;20188;-77
2023/12/01 03:55:07;;;;;;;26.90;14.57;;;;;;;;;;5036986;28;20044;-78
2023/12/01 03:57:33;;;;;;;25.10;14.27;;;;;;;;;;5020872;28;20446;-77
2023/12/01 04:00:00;;;;;;;27.25;13.73;;;;;;;;;;5020489;28;20053;-78
2023/12/01 04:02:26;;;;;;;26.15;14.57;;;;;;;;;;5020369;28;20037;-78
2023/12/01 04:04:52;;;;;;;29.10;13.93;;;;;;;;;;5053308;28;20556;-77
2023/12/01 04:07:18;;;;;;;27.83;15.95;;;;;;;;;;5037564;28;20055;-78
2023/12/01 04:09:44;;;;;;;30.17;15.90;;;;;;;;;;5036848;28;20128;-78
2023/12/01 04:12:10;;;;;;;29.88;15.95;;;;;;;;;;5036969;28;20056;-77
2023/12/01 04:14:37;;;;;;;28.15;14.98;;;;;;;;;;5053195;28;20102;-77
2023/12/01 04:17:08;;;;;;;28.02;13.77;;;;;;;;;;5053614;28;20473;-78
2023/12/01 04:19:38;;;;;;;31.38;16.80;;;;;;;;;;5053697;28;20446;-78
2023/12/01 04:22:07;;;;;;;25.67;15.07;;;;;;;;;;5053721;28;20412;-77
2023/12/01 04:24:34;;;;;;;30.63;15.00;;;;;;;;;;5035241;28;20139;-77
2023/12/01 04:27:01;;;;;;;30.67;14.65;;;;;;;;;;5053021;28;20079;-78
2023/12/01 04:29:29;;;;;;;32.95;16.23;;;;;;;;;;5053228;28;20053;-78
2023/12/01 04:31:55;;;;;;;31.63;15.65;;;;;;;;;;5052917;28;20114;-78
2023/12/01 04:34:21;;;;;;;28.77;14.63;;;;;;;;;;5052911;28;20049;-78
2023/12/01 04:36:48;;;;;;;25.65;14.40;;;;;;;;;;5052835;28;20049;-78
2023/12/01 04:39:15;;;;;;;21.42;12.80;;;;;;;;;;5036929;28;20079;-78
2023/12/01 04:41:41;;;;;;;26.08;13.95;;;;;;;;;;5053488;28;20037;-78
2023/12/01 04:44:07;;;;;;;24.92;13.90;;;;;;;;;;5052807;28;20048;-78
2023/12/01 04:46:33;;;;;;;24.55;13.35;;;;;;;;;;5036004;28;20191;-78
2023/12/01 04:48:59;;;;;;;27.88;14.77;;;;;;;;;;5053493;28;20102;-78
2023/12/01 04:51:25;;;;;;;22.63;13.05;;;;;;;;;;5036149;28;20068;-78
2023/12/01 04:53:51;;;;;;;26.15;14.63;;;;;;;;;;5052627;28;20142;-78
2023/12/01 04:56:17;;;;;;;26.73;14.32;;;;;;;;;;5035904;28;20048;-78
2023/12/01 04:58:43;;;;;;;28.48;15.32;;;;;;;;;;5035958;28;20487;-78
2023/12/01 05:01:10;;;;;;;28.17;15.02;;;;;;;;;;5035867;28;20045;-78
2023/12/01 05:03:37;;;;;;;27.48;15.23;;;;;;;;;;5035904;28;20456;-78
2023/12/01 05:06:03;;;;;;;27.75;15.82;;;;;;;;;;5053163;28;20427;-78
2023/12/01 05:08:29;;;;;;;31.55;17.10;;;;;;;;;;5052371;28;20041;-78
2023/12/01 05:10:56;;;;;;;30.77;15.05;;;;;;;;;;5052395;28;20447;-78
2023/12/01 05:13:22;;;;;;;29.98;17.67;;;;;;;;;;5052392;28;20106;-78
2023/12/01 05:15:48;;;;;;;30.38;16.40;;;;;;;;;;5052245;28;20127;-77
2023/12/01 05:18:14;;;;;;;28.35;15.43;;;;;;;;;;5053080;28;20102;-78
2023/12/01 05:20:40;;;;;;;27.10;14.93;;;;;;;;;;5052229;28;20041;-78
2023/12/01 05:23:10;;;;;;;27.95;15.30;;;;;;;;;;5051675;28;20041;-78
2023/12/01 05:25:44;;;;;;;32.60;16.80;;;;;;;;;;5053760;28;20049;-78
2023/12/01 05:28:10;;;;;;;31.55;15.77;;;;;;;;;;5035613;28;20447;-78
2023/12/01 05:30:38;;;;;;;28.65;16.52;;;;;;;;;;5052176;28;20083;-77
2023/12/01 05:33:04;;;;;;;29.35;16.05;;;;;;;;;;5053071;28;20469;-78
2023/12/01 05:35:31;;;;;;;28.02;16.33;;;;;;;;;;5053689;28;20458;-78
2023/12/01 05:37:58;;;;;;;32.42;16.42;;;;;;;;;;5056596;28;20460;-78
2023/12/01 05:40:24;;;;;;;34.75;18.25;;;;;;;;;;5038966;28;20457;-78
2023/12/01 05:42:54;;;;;;;32.50;17.45;;;;;;;;;;5039205;28;20044;-78
2023/12/01 05:45:24;;;;;;;31.45;17.17;;;;;;;;;;5040160;28;20056;-78
2023/12/01 05:47:52;;;;;;;32.15;16.63;;;;;;;;;;5039300;28;20056;-78
2023/12/01 05:50:29;;;;;;;33.30;17.15;;;;;;;;;;5055365;28;20061;-78
2023/12/01 05:52:56;;;;;;;35.00;17.70;;;;;;;;;;5055782;28;20072;-78
2023/12/01 05:55:23;;;;;;;35.78;18.75;;;;;;;;;;5056078;28;20478;-78
2023/12/01 05:57:50;;;;;;;34.35;18.38;;;;;;;;;;5055948;28;20393;-78
2023/12/01 06:00:17;;;;;;;29.27;16.88;;;;;;;;;;5039052;28;20052;-78
2023/12/01 06:02:47;;;;;;;33.28;18.25;;;;;;;;;;5055085;28;20037;-77
2023/12/01 06:05:15;;;;;;;35.85;18.45;;;;;;;;;;5039934;28;20060;-78
2023/12/01 06:07:42;;;;;;;39.38;20.13;;;;;;;;;;5038972;28;20050;-77
2023/12/01 06:10:09;;;;;;;35.50;18.10;;;;;;;;;;5055993;28;20515;-78
2023/12/01 06:12:37;;;;;;;37.03;19.25;;;;;;;;;;5039037;28;20481;-78
2023/12/01 06:15:05;;;;;;;35.60;17.85;;;;;;;;;;5039057;28;20443;-78
2023/12/01 06:17:31;;;;;;;31.55;16.55;;;;;;;;;;5055364;28;20053;-77
2023/12/01 06:19:57;;;;;;;37.85;19.17;;;;;;;;;;5056040;28;20131;-78
2023/12/01 06:22:23;;;;;;;37.22;18.45;;;;;;;;;;5055347;28;20045;-78
2023/12/01 06:24:49;;;;;;;33.78;18.00;;;;;;;;;;5055176;28;20398;-77
2023/12/01 06:27:16;;;;;;;34.10;18.08;;;;;;;;;;5055179;28;20076;-78
2023/12/01 06:29:42;;;;;;;37.67;18.58;;;;;;;;;;5055930;28;20103;-78
2023/12/01 06:32:08;;;;;;;37.00;18.35;;;;;;;;;;5039371;28;20461;-77
2023/12/01 06:34:34;;;;;;;36.47;16.42;;;;;;;;;;5038711;28;20075;-78
2023/12/01 06:37:00;;;;;;;37.42;18.13;;;;;;;;;;5055739;28;20044;-78
2023/12/01 06:39:27;;;;;;;37.97;19.00;;;;;;;;;;5056493;28;20057;-77
2023/12/01 06:41:53;;;;;;;36.45;17.45;;;;;;;;;;5054680;28;20045;-78
2023/12/01 06:44:20;;;;;;;35.88;18.23;;;;;;;;;;5055593;28;20140;-78
2023/12/01 06:46:46;;;;;;;36.42;18.77;;;;;;;;;;5053490;28;20481;-78
2023/12/01 06:49:12;;;;;;;36.13;18.35;;;;;;;;;;5054390;28;20102;-78
2023/12/01 06:51:38;;;;;;;36.35;18.65;;;;;;;;;;5054677;28;20473;-78
2023/12/01 06:54:04;;;;;;;39.53;19.90;;;;;;;;;;5054644;28;20092;-77
2023/12/01 06:56:30;;;;;;;37.13;19.35;;;;;;;;;;5054619;28;20049;-77
2023/12/01 06:58:56;;;;;;;41.30;19.88;;;;;;;;;;5055389;28;20056;-77
2023/12/01 07:01:22;;;;;;;37.45;19.13;;;;;;;;;;5054435;28;20059;-78
2023/12/01 07:03:48;;;;;;;40.22;18.75;;;;;;;;;;5054536;28;20064;-77
2023/12/01 07:06:15;;;;;;;34.78;16.67;;;;;;;;;;5054677;28;20070;-77
2023/12/01 07:08:41;;;;;;;36.88;18.40;;;;;;;;;;5038582;28;20401;-77
2023/12/01 07:11:07;;;;;;;34.78;17.38;;;;;;;;;;5054591;28;20041;-78
2023/12/01 07:13:34;;;;;;;35.78;17.63;;;;;;;;;;5037392;28;20133;-77
2023/12/01 07:16:09;;;;;;;30.70;15.27;;;;;;;;;;5037492;28;20064;-77
2023/12/01 07:18:36;;;;;;;30.95;15.90;;;;;;;;;;5055035;28;20053;-78
2023/12/01 07:21:06;;;;;;;30.67;15.43;;;;;;;;;;5054931;28;20084;-77
2023/12/01 07:23:32;;;;;;;33.78;16.10;;;;;;;;;;5053779;28;20140;-77
2023/12/01 07:25:58;;;;;;;32.58;15.40;;;;;;;;;;5037369;28;20064;-78
2023/12/01 07:28:25;;;;;;;32.10;15.60;;;;;;;;;;5053966;28;20123;-77
2023/12/01 07:30:51;;;;;;;31.20;15.80;;;;;;;;;;5054954;28;20052;-77
2023/12/01 07:33:17;;;;;;;33.15;16.63;;;;;;;;;;5054092;28;20465;-77
2023/12/01 07:35:43;;;;;;;36.42;18.02;;;;;;;;;;5021158;28;20048;-77
2023/12/01 07:38:10;;;;;;;34.97;18.10;;;;;;;;;;5054078;28;20529;-78
2023/12/01 07:40:36;;;;;;;34.00;17.45;;;;;;;;;;5020738;28;20049;-77
2023/12/01 07:43:05;;;;;;;34.42;16.65;;;;;;;;;;5054166;28;20051;-77
2023/12/01 07:45:31;;;;;;;35.63;17.05;;;;;;;;;;5037683;28;20124;-78
2023/12/01 07:47:57;;;;;;;34.10;16.48;;;;;;;;;;5053255;28;20051;-77
2023/12/01 07:50:25;;;;;;;34.78;17.27;;;;;;;;;;5036648;28;20077;-77
2023/12/01 07:52:52;;;;;;;33.30;16.27;;;;;;;;;;5053525;28;20048;-78
2023/12/01 07:55:21;;;;;;;36.05;17.48;;;;;;;;;;5053478;28;20052;-77
2023/12/01 07:57:47;;;;;;;31.70;16.95;;;;;;;;;;5036701;28;20056;-77
2023/12/01 08:00:16;;;;;;;28.63;15.13;;;;;;;;;;5053294;28;20057;-77
2023/12/01 08:02:43;;;;;;;28.98;13.90;;;;;;;;;;5053124;28;20131;-77
2023/12/01 08:05:14;;;;;;;29.85;15.77;;;;;;;;;;5053264;28;20044;-77
2023/12/01 08:07:44;;;;;;;30.65;15.23;;;;;;;;;;5054071;28;20072;-77
2023/12/01 08:10:14;;;;;;;28.70;14.43;;;;;;;;;;5053126;28;20132;-77
2023/12/01 08:12:41;;;;;;;27.35;15.13;;;;;;;;;;5052842;28;20053;-77
2023/12/01 08:15:07;;;;;;;25.92;13.70;;;;;;;;;;5020791;28;20044;-78
2023/12/01 08:17:33;;;;;;;23.83;13.48;;;;;;;;;;5053531;28;20131;-77
2023/12/01 08:19:59;;;;;;;26.85;13.65;;;;;;;;;;5052969;28;20473;-77
2023/12/01 08:22:25;;;;;;;25.45;13.82;;;;;;;;;;5052846;28;20580;-77
2023/12/01 08:24:52;;;;;;;29.05;14.88;;;;;;;;;;5053138;28;20051;-77
2023/12/01 08:27:18;;;;;;;28.73;14.75;;;;;;;;;;5052842;28;20084;-76
2023/12/01 08:29:44;;;;;;;25.73;14.48;;;;;;;;;;5036160;28;20462;-77
2023/12/01 08:32:10;;;;;;;24.13;13.30;;;;;;;;;;5053548;28;20102;-77
2023/12/01 08:34:36;;;;;;;24.92;14.43;;;;;;;;;;5036401;28;20049;-77
2023/12/01 08:37:03;;;;;;;24.33;13.43;;;;;;;;;;5036104;28;20057;-77
2023/12/01 08:39:30;;;;;;;20.63;12.32;;;;;;;;;;5053623;28;20067;-77
2023/12/01 08:41:56;;;;;;;20.05;12.77;;;;;;;;;;5052315;28;20041;-77
2023/12/01 08:44:22;;;;;;;20.90;12.70;;;;;;;;;;5053401;28;20041;-78
2023/12/01 08:46:48;;;;;;;19.17;11.90;;;;;;;;;;5052183;28;20049;-77
2023/12/01 08:49:14;;;;;;;18.20;11.20;;;;;;;;;;5053026;28;20114;-78
2023/12/01 08:51:41;;;;;;;20.58;12.57;;;;;;;;;;5052531;28;20049;-78
2023/12/01 08:54:07;;;;;;;20.58;12.73;;;;;;;;;;5035939;28;20393;-78
2023/12/01 08:56:34;;;;;;;22.35;13.50;;;;;;;;;;5052459;28;20048;-77
2023/12/01 08:59:00;;;;;;;20.67;13.35;;;;;;;;;;5052660;28;20052;-77
2023/12/01 09:01:26;;;;;;;20.60;12.27;;;;;;;;;;5053253;28;20049;-77
2023/12/01 09:03:52;;;;;;;23.58;13.30;;;;;;;;;;5035816;28;20111;-77
2023/12/01 09:06:18;;;;;;;20.95;13.35;;;;;;;;;;5053388;28;20049;-77
2023/12/01 09:08:44;;;;;;;22.27;13.30;;;;;;;;;;5052364;28;20389;-77
2023/12/01 09:11:10;;;;;;;24.98;13.75;;;;;;;;;;5040653;28;20153;-77
2023/12/01 09:13:37;;;;;;;22.17;13.65;;;;;;;;;;5042315;28;20045;-77
2023/12/01 09:16:03;;;;;;;23.17;13.77;;;;;;;;;;5058559;28;20040;-78
2023/12/01 09:18:30;;;;;;;21.08;13.50;;;;;;;;;;5058916;28;20489;-77
2023/12/01 09:20:56;;;;;;;22.15;13.13;;;;;;;;;;5059185;28;20048;-77
2023/12/01 09:23:22;;;;;;;22.02;13.98;;;;;;;;;;5058599;28;20052;-77
2023/12/01 09:25:48;;;;;;;23.33;14.82;;;;;;;;;;5058808;28;20045;-77
2023/12/01 09:28:15;;;;;;;23.40;14.23;;;;;;;;;;5058855;28;20041;-77
2023/12/01 09:30:41;;;;;;;22.95;13.95;;;;;;;;;;5058812;28;20477;-77
2023/12/01 09:33:07;;;;;;;20.10;13.70;;;;;;;;;;5042985;28;20045;-77
2023/12/01 09:35:33;;;;;;;20.23;12.23;;;;;;;;;;5059119;28;20094;-77
2023/12/01 09:37:59;;;;;;;18.73;12.43;;;;;;;;;;5059572;28;20052;-77
2023/12/01 09:40:26;;;;;;;21.33;12.93;;;;;;;;;;5042156;28;20469;-78
2023/12/01 09:42:52;;;;;;;23.05;14.75;;;;;;;;;;5058556;28;20045;-77
2023/12/01 09:45:21;;;;;;;21.33;14.30;;;;;;;;;;5058523;28;20044;-78
2023/12/01 09:47:52;;;;;;;24.15;14.93;;;;;;;;;;5042373;28;20052;-77
2023/12/01 09:50:19;;;;;;;21.95;14.88;;;;;;;;;;5058833;28;20051;-78
2023/12/01 09:52:45;;;;;;;19.98;12.88;;;;;;;;;;5058972;28;20045;-78
2023/12/01 09:55:11;;;;;;;21.45;13.38;;;;;;;;;;5059472;28;20469;-78
2023/12/01 09:57:38;;;;;;;18.50;12.23;;;;;;;;;;5042049;28;20048;-77
2023/12/01 10:00:10;;;;;;;18.85;11.80;;;;;;;;;;5042784;28;20053;-78
2023/12/01 10:02:38;;;;;;;18.35;12.00;;;;;;;;;;5058807;28;20084;-78
2023/12/01 10:05:06;;;;;;;18.90;12.88;;;;;;;;;;5059412;28;20048;-78
2023/12/01 10:07:32;;;;;;;19.33;12.82;;;;;;;;;;5058656;28;20045;-78
2023/12/01 10:09:59;;;;;;;17.00;11.45;;;;;;;;;;5058574;28;20138;-78
2023/12/01 10:12:25;;;;;;;18.67;11.70;;;;;;;;;;5058571;28;20106;-77
2023/12/01 10:14:51;;;;;;;19.23;12.77;;;;;;;;;;5058559;28;20576;-77
2023/12/01 10:17:25;;;;;;;21.83;13.98;;;;;;;;;;5058683;28;20048;-77
2023/12/01 10:19:52;;;;;;;19.90;12.77;;;;;;;;;;5059332;28;20053;-78
2023/12/01 10:22:19;;;;;;;20.15;13.23;;;;;;;;;;5057722;28;20049;-78
2023/12/01 10:24:56;;;;;;;19.90;13.20;;;;;;;;;;5055307;28;20119;-77
2023/12/01 10:27:22;;;;;;;17.48;11.43;;;;;;;;;;5056061;28;20132;-77
2023/12/01 10:29:48;;;;;;;16.75;11.88;;;;;;;;;;5055432;28;20136;-78
2023/12/01 10:32:17;;;;;;;17.63;11.65;;;;;;;;;;5038746;28;20049;-78
2023/12/01 10:34:54;;;;;;;16.83;11.32;;;;;;;;;;5038558;28;20052;-78
2023/12/01 10:37:21;;;;;;;18.67;11.18;;;;;;;;;;5055965;28;20055;-77
2023/12/01 10:39:49;;;;;;;17.52;12.20;;;;;;;;;;5055062;28;20049;-78
2023/12/01 10:42:16;;;;;;;15.20;11.52;;;;;;;;;;5054877;28;20137;-78
2023/12/01 10:44:42;;;;;;;17.45;12.05;;;;;;;;;;5055800;28;20098;-78
2023/12/01 10:47:11;;;;;;;16.55;11.32;;;;;;;;;;5054919;28;20041;-78
2023/12/01 10:49:39;;;;;;;19.80;12.63;;;;;;;;;;5054923;28;20064;-78
2023/12/01 10:52:09;;;;;;;16.48;11.63;;;;;;;;;;5038297;28;20048;-78
2023/12/01 10:54:35;;;;;;;15.90;11.35;;;;;;;;;;5038131;28;20041;-78
2023/12/01 10:57:07;;;;;;;16.75;11.32;;;;;;;;;;5054798;28;20049;-78
2023/12/01 10:59:34;;;;;;;16.60;11.43;;;;;;;;;;5055575;28;20049;-78
2023/12/01 11:02:00;;;;;;;16.08;10.75;;;;;;;;;;5037969;28;20051;-78
2023/12/01 11:04:27;;;;;;;15.40;10.73;;;;;;;;;;5054341;28;20503;-78
2023/12/01 11:06:56;;;;;;;15.57;11.35;;;;;;;;;;5022469;28;20143;-78
2023/12/01 11:09:25;;;;;;;16.42;11.68;;;;;;;;;;5054332;28;20102;-78
2023/12/01 11:12:02;;;;;;;15.27;11.20;;;;;;;;;;5038625;28;20096;-78
2023/12/01 11:14:29;;;;;;;14.20;10.32;;;;;;;;;;5055082;28;20500;-77
2023/12/01 11:16:55;;;;;;;16.13;12.07;;;;;;;;;;5055102;28;20059;-78
2023/12/01 11:19:23;;;;;;;11.45;7.72;;;;;;;;;;5055171;28;20041;-78
2023/12/01 11:21:56;;;;;;;15.77;11.38;;;;;;;;;;5054214;28;20048;-78
2023/12/01 11:24:31;;;;;;;15.30;11.25;;;;;;;;;;5038016;28;20064;-78
2023/12/01 11:27:03;;;;;;;19.83;12.98;;;;;;;;;;5055256;28;20107;-78
2023/12/01 11:29:30;;;;;;;16.25;11.52;;;;;;;;;;5054130;28;20106;-77
2023/12/01 11:31:57;;;;;;;18.25;12.25;;;;;;;;;;5054094;28;20409;-78
2023/12/01 11:34:26;;;;;;;16.65;11.25;;;;;;;;;;5053278;28;20056;-78
2023/12/01 11:36:53;;;;;;;15.05;10.95;;;;;;;;;;5054034;28;20045;-78
2023/12/01 11:39:29;;;;;;;15.38;11.65;;;;;;;;;;5054295;28;20052;-77
2023/12/01 11:42:11;;;;;;;17.08;11.77;;;;;;;;;;5054680;28;20049;-78
2023/12/01 11:44:39;;;;;;;17.05;11.82;;;;;;;;;;5054770;28;20119;-79
2023/12/01 11:47:08;;;;;;;16.50;12.00;;;;;;;;;;5054846;28;20433;-77
2023/12/01 11:49:38;;;;;;;16.25;10.50;;;;;;;;;;5054394;28;20132;-77
2023/12/01 11:52:20;;;;;;;15.57;11.40;;;;;;;;;;5037107;28;20049;-77
2023/12/01 11:54:47;;;;;;;16.05;11.18;;;;;;;;;;5037323;28;20087;-77
2023/12/01 11:57:16;;;;;;;15.93;11.73;;;;;;;;;;5054405;28;20492;-77
2023/12/01 11:59:42;;;;;;;15.98;12.20;;;;;;;;;;5053614;28;20080;-77
2023/12/01 12:02:08;;;;;;;14.93;10.93;;;;;;;;;;5053415;28;20049;-77
2023/12/01 12:04:37;;;;;;;17.15;12.48;;;;;;;;;;5053562;28;20045;-77
2023/12/01 12:07:05;;;;;;;16.17;11.65;;;;;;;;;;5053314;28;20052;-77
2023/12/01 12:09:32;;;;;;;16.70;11.95;;;;;;;;;;5053438;28;20048;-77
2023/12/01 12:11:59;;;;;;;18.38;12.82;;;;;;;;;;5053479;28;20084;-77
2023/12/01 12:14:27;;;;;;;16.70;11.50;;;;;;;;;;5053254;28;20052;-77
2023/12/01 12:16:53;;;;;;;14.43;11.32;;;;;;;;;;5054184;28;20088;-77
2023/12/01 12:19:19;;;;;;;16.65;11.75;;;;;;;;;;5052991;28;20408;-77
2023/12/01 12:21:46;;;;;;;15.52;10.43;;;;;;;;;;5019877;28;20056;-77
2023/12/01 12:24:12;;;;;;;16.42;11.50;;;;;;;;;;5036539;28;20057;-77
2023/12/01 12:26:39;;;;;;;15.48;12.10;;;;;;;;;;5053047;28;20056;-77
2023/12/01 12:29:06;;;;;;;17.90;12.55;;;;;;;;;;5053051;28;20051;-77
2023/12/01 12:31:35;;;;;;;16.52;11.65;;;;;;;;;;5053000;28;20652;-77
2023/12/01 12:34:01;;;;;;;18.33;12.30;;;;;;;;;;5053998;28;20049;-77
2023/12/01 12:36:29;;;;;;;15.70;11.98;;;;;;;;;;5053952;28;20481;-77
2023/12/01 12:38:58;;;;;;;15.48;11.57;;;;;;;;;;5052670;28;20083;-77
2023/12/01 12:41:28;;;;;;;15.13;11.48;;;;;;;;;;5052725;28;20045;-77
2023/12/01 12:43:56;;;;;;;17.27;12.05;;;;;;;;;;5035941;28;20091;-77
2023/12/01 12:46:22;;;;;;;19.88;11.48;;;;;;;;;;5052363;28;20049;-77
2023/12/01 12:48:48;;;;;;;15.98;12.07;;;;;;;;;;5052698;28;20060;-77
2023/12/01 12:51:18;;;;;;;14.25;11.35;;;;;;;;;;5053128;28;20052;-76
2023/12/01 12:53:45;;;;;;;13.82;10.50;;;;;;;;;;5053410;28;20048;-77
2023/12/01 12:56:13;;;;;;;16.35;12.15;;;;;;;;;;5052655;28;20090;-76
2023/12/01 12:58:39;;;;;;;14.98;11.30;;;;;;;;;;5053377;28;20432;-77
2023/12/01 13:01:06;;;;;;;15.85;13.40;;;;;;;;;;5052545;28;20045;-77
2023/12/01 13:03:32;;;;;;;12.05;8.95;;;;;;;;;;5052229;28;20052;-76
2023/12/01 13:05:58;;;;;;;10.73;7.65;;;;;;;;;;5053430;28;20049;-77
2023/12/01 13:08:24;;;;;;;15.40;11.90;;;;;;;;;;5036034;28;20071;-77
2023/12/01 13:10:50;;;;;;;13.18;10.45;;;;;;;;;;5036147;28;20052;-76
2023/12/01 13:13:16;;;;;;;14.18;10.93;;;;;;;;;;5035950;28;20055;-77
2023/12/01 13:15:43;;;;;;;13.68;10.93;;;;;;;;;;5053110;28;20131;-77
2023/12/01 13:18:09;;;;;;;15.07;11.43;;;;;;;;;;5052230;28;20117;-76
2023/12/01 13:20:35;;;;;;;13.68;10.85;;;;;;;;;;5052421;28;20045;-77
2023/12/01 13:23:01;;;;;;;14.60;11.07;;;;;;;;;;5035518;28;20045;-77
2023/12/01 13:25:27;;;;;;;15.43;11.38;;;;;;;;;;5052350;28;20136;-77
2023/12/01 13:27:53;;;;;;;16.17;11.48;;;;;;;;;;5052311;28;20389;-77
2023/12/01 13:30:19;;;;;;;15.27;10.85;;;;;;;;;;5035828;28;20150;-77
2023/12/01 13:32:45;;;;;;;16.67;11.88;;;;;;;;;;5035705;28;20049;-77
2023/12/01 13:35:13;;;;;;;14.95;11.40;;;;;;;;;;5052179;28;20053;-77
2023/12/01 13:37:39;;;;;;;16.27;11.43;;;;;;;;;;5052488;28;20428;-77
2023/12/01 13:40:08;;;;;;;17.35;11.20;;;;;;;;;;5052318;28;20059;-77
2023/12/01 13:42:35;;;;;;;14.90;11.65;;;;;;;;;;5051987;28;20056;-77
2023/12/01 13:45:02;;;;;;;14.10;9.85;;;;;;;;;;5035655;28;20389;-77
2023/12/01 13:47:28;;;;;;;14.57;10.43;;;;;;;;;;5052872;28;20045;-76
2023/12/01 13:49:54;;;;;;;14.50;10.25;;;;;;;;;;5051907;28;20437;-77
2023/12/01 13:52:20;;;;;;;13.48;9.25;;;;;;;;;;5053110;28;20053;-76
2023/12/01 13:54:46;;;;;;;14.80;10.52;;;;;;;;;;5035151;28;20045;-75
2023/12/01 13:57:12;;;;;;;14.45;10.35;;;;;;;;;;5054181;28;20477;-77
2023/12/01 13:59:39;;;;;;;10.10;7.53;;;;;;;;;;5056770;28;20045;-77
2023/12/01 14:02:05;;;;;;;12.02;9.43;;;;;;;;;;5056491;28;20040;-77
2023/12/01 14:04:32;;;;;;;10.25;8.25;;;;;;;;;;5039029;28;20086;-77
2023/12/01 14:06:58;;;;;;;12.02;8.93;;;;;;;;;;5057225;28;20466;-77
2023/12/01 14:09:24;;;;;;;11.30;8.77;;;;;;;;;;5039087;28;20134;-77
2023/12/01 14:11:50;;;;;;;12.13;8.60;;;;;;;;;;5039095;28;20052;-77
2023/12/01 14:14:16;;;;;;;12.02;8.13;;;;;;;;;;5022277;28;20107;-77
2023/12/01 14:16:42;;;;;;;11.60;8.27;;;;;;;;;;5022264;28;20489;-76